sensor_id;sensor_type;location;lat;lon;timestamp;P1;durP1;ratioP1;P2;durP2;ratioP2
78987;SDS011;74752;44.786;37.680;2024-03-08T00:00:36;17.73;;;12.25;;
78987;SDS011;74752;44.786;37.680;2024-03-08T00:01:39;21.88;;;13.48;;
78987;SDS011;74752;44.786;37.680;2024-03-08T00:02:44;17.67;;;11.25;;
78987;SDS011;74752;44.786;37.680;2024-03-08T00:03:47;21.23;;;12.15;;
78987;SDS011;74752;44.786;37.680;2024-03-08T00:04:49;19.50;;;11.77;;
78987;SDS011;74752;44.786;37.680;2024-03-08T00:05:51;19.88;;;11.77;;
78987;SDS011;74752;44.786;37.680;2024-03-08T00:06:53;17.02;;;11.38;;
78987;SDS011;74752;44.786;37.680;2024-03-08T00:07:54;20.23;;;12.25;;
78987;SDS011;74752;44.786;37.680;2024-03-08T00:09:01;20.48;;;12.95;;
78987;SDS011;74752;44.786;37.680;2024-03-08T00:10:07;19.98;;;12.90;;
78987;SDS011;74752;44.786;37.680;2024-03-08T00:11:12;22.92;;;12.32;;
78987;SDS011;74752;44.786;37.680;2024-03-08T00:12:17;18.98;;;11.45;;
78987;SDS011;74752;44.786;37.680;2024-03-08T00:13:19;19.80;;;12.40;;
78987;SDS011;74752;44.786;37.680;2024-03-08T00:14:21;18.65;;;11.02;;
78987;SDS011;74752;44.786;37.680;2024-03-08T00:15:22;20.17;;;12.52;;
78987;SDS011;74752;44.786;37.680;2024-03-08T00:16:24;18.85;;;11.48;;
78987;SDS011;74752;44.786;37.680;2024-03-08T00:17:28;20.08;;;13.55;;
78987;SDS011;74752;44.786;37.680;2024-03-08T00:18:30;22.83;;;14.30;;
78987;SDS011;74752;44.786;37.680;2024-03-08T00:19:34;19.60;;;13.00;;
78987;SDS011;74752;44.786;37.680;2024-03-08T00:20:37;20.77;;;12.60;;
78987;SDS011;74752;44.786;37.680;2024-03-08T00:21:39;21.75;;;13.50;;
78987;SDS011;74752;44.786;37.680;2024-03-08T00:22:42;18.65;;;12.15;;
78987;SDS011;74752;44.786;37.680;2024-03-08T00:23:44;21.67;;;13.40;;
78987;SDS011;74752;44.786;37.680;2024-03-08T00:24:46;20.85;;;13.18;;
78987;SDS011;74752;44.786;37.680;2024-03-08T00:25:50;19.08;;;12.32;;
78987;SDS011;74752;44.786;37.680;2024-03-08T00:26:52;20.48;;;12.18;;
78987;SDS011;74752;44.786;37.680;2024-03-08T00:27:54;23.08;;;14.10;;
78987;SDS011;74752;44.786;37.680;2024-03-08T00:29:01;24.67;;;13.98;;
78987;SDS011;74752;44.786;37.680;2024-03-08T00:30:02;19.90;;;12.90;;
78987;SDS011;74752;44.786;37.680;2024-03-08T00:31:04;21.13;;;12.95;;
78987;SDS011;74752;44.786;37.680;2024-03-08T00:32:07;24.45;;;14.75;;
78987;SDS011;74752;44.786;37.680;2024-03-08T00:33:10;19.73;;;12.15;;
78987;SDS011;74752;44.786;37.680;2024-03-08T00:34:12;22.08;;;13.40;;
78987;SDS011;74752;44.786;37.680;2024-03-08T00:35:14;18.83;;;11.68;;
78987;SDS011;74752;44.786;37.680;2024-03-08T00:36:17;19.08;;;12.35;;
78987;SDS011;74752;44.786;37.680;2024-03-08T00:37:19;21.63;;;12.75;;
78987;SDS011;74752;44.786;37.680;2024-03-08T00:38:23;21.08;;;12.70;;
78987;SDS011;74752;44.786;37.680;2024-03-08T00:39:28;20.92;;;12.77;;
78987;SDS011;74752;44.786;37.680;2024-03-08T00:40:30;21.48;;;12.88;;
78987;SDS011;74752;44.786;37.680;2024-03-08T00:41:32;23.17;;;14.18;;
78987;SDS011;74752;44.786;37.680;2024-03-08T00:42:34;19.50;;;12.93;;
78987;SDS011;74752;44.786;37.680;2024-03-08T00:43:37;20.85;;;12.85;;
78987;SDS011;74752;44.786;37.680;2024-03-08T00:44:39;23.77;;;15.02;;
78987;SDS011;74752;44.786;37.680;2024-03-08T00:45:41;24.00;;;14.32;;
78987;SDS011;74752;44.786;37.680;2024-03-08T00:46:43;24.40;;;13.93;;
78987;SDS011;74752;44.786;37.680;2024-03-08T00:47:44;23.77;;;14.70;;
78987;SDS011;74752;44.786;37.680;2024-03-08T00:48:46;23.60;;;15.13;;
78987;SDS011;74752;44.786;37.680;2024-03-08T00:49:49;27.48;;;15.10;;
78987;SDS011;74752;44.786;37.680;2024-03-08T00:50:54;25.33;;;15.00;;
78987;SDS011;74752;44.786;37.680;2024-03-08T00:51:56;23.83;;;14.55;;
78987;SDS011;74752;44.786;37.680;2024-03-08T00:52:59;25.63;;;15.70;;
78987;SDS011;74752;44.786;37.680;2024-03-08T00:54:02;22.92;;;14.18;;
78987;SDS011;74752;44.786;37.680;2024-03-08T00:55:04;24.27;;;14.05;;
78987;SDS011;74752;44.786;37.680;2024-03-08T00:56:09;24.05;;;15.02;;
78987;SDS011;74752;44.786;37.680;2024-03-08T00:57:13;25.77;;;14.50;;
78987;SDS011;74752;44.786;37.680;2024-03-08T00:58:15;28.02;;;16.75;;
78987;SDS011;74752;44.786;37.680;2024-03-08T00:59:17;23.85;;;13.90;;
78987;SDS011;74752;44.786;37.680;2024-03-08T01:00:19;24.63;;;14.18;;
78987;SDS011;74752;44.786;37.680;2024-03-08T01:01:22;25.17;;;14.35;;
78987;SDS011;74752;44.786;37.680;2024-03-08T01:02:23;21.85;;;13.05;;
78987;SDS011;74752;44.786;37.680;2024-03-08T01:03:24;28.00;;;16.67;;
78987;SDS011;74752;44.786;37.680;2024-03-08T01:04:27;28.48;;;16.42;;
78987;SDS011;74752;44.786;37.680;2024-03-08T01:05:32;25.30;;;14.70;;
78987;SDS011;74752;44.786;37.680;2024-03-08T01:06:37;26.58;;;16.45;;
78987;SDS011;74752;44.786;37.680;2024-03-08T01:07:39;27.73;;;15.73;;
78987;SDS011;74752;44.786;37.680;2024-03-08T01:08:41;24.83;;;15.63;;
78987;SDS011;74752;44.786;37.680;2024-03-08T01:09:43;24.02;;;14.73;;
78987;SDS011;74752;44.786;37.680;2024-03-08T01:10:44;21.23;;;13.63;;
78987;SDS011;74752;44.786;37.680;2024-03-08T01:11:47;22.20;;;13.18;;
78987;SDS011;74752;44.786;37.680;2024-03-08T01:12:49;22.60;;;14.20;;
78987;SDS011;74752;44.786;37.680;2024-03-08T01:13:51;20.73;;;12.43;;
78987;SDS011;74752;44.786;37.680;2024-03-08T01:14:54;22.38;;;13.68;;
78987;SDS011;74752;44.786;37.680;2024-03-08T01:15:56;24.10;;;14.35;;
78987;SDS011;74752;44.786;37.680;2024-03-08T01:16:58;24.70;;;15.15;;
78987;SDS011;74752;44.786;37.680;2024-03-08T01:18:00;24.67;;;14.45;;
78987;SDS011;74752;44.786;37.680;2024-03-08T01:19:02;22.80;;;15.38;;
78987;SDS011;74752;44.786;37.680;2024-03-08T01:20:06;23.17;;;13.80;;
78987;SDS011;74752;44.786;37.680;2024-03-08T01:21:12;21.10;;;14.10;;
78987;SDS011;74752;44.786;37.680;2024-03-08T01:22:14;23.45;;;13.43;;
78987;SDS011;74752;44.786;37.680;2024-03-08T01:23:16;21.73;;;13.30;;
78987;SDS011;74752;44.786;37.680;2024-03-08T01:24:19;22.10;;;14.18;;
78987;SDS011;74752;44.786;37.680;2024-03-08T01:25:21;24.75;;;14.90;;
78987;SDS011;74752;44.786;37.680;2024-03-08T01:26:24;25.08;;;14.90;;
78987;SDS011;74752;44.786;37.680;2024-03-08T01:27:26;22.75;;;14.18;;
78987;SDS011;74752;44.786;37.680;2024-03-08T01:28:29;21.38;;;13.70;;
78987;SDS011;74752;44.786;37.680;2024-03-08T01:29:34;22.75;;;13.52;;
78987;SDS011;74752;44.786;37.680;2024-03-08T01:30:37;23.85;;;14.65;;
78987;SDS011;74752;44.786;37.680;2024-03-08T01:31:39;21.13;;;14.30;;
78987;SDS011;74752;44.786;37.680;2024-03-08T01:32:41;22.55;;;13.82;;
78987;SDS011;74752;44.786;37.680;2024-03-08T01:33:44;24.38;;;14.63;;
78987;SDS011;74752;44.786;37.680;2024-03-08T01:34:46;21.85;;;13.65;;
78987;SDS011;74752;44.786;37.680;2024-03-08T01:35:48;21.08;;;13.77;;
78987;SDS011;74752;44.786;37.680;2024-03-08T01:36:50;22.67;;;13.90;;
78987;SDS011;74752;44.786;37.680;2024-03-08T01:37:52;23.20;;;14.93;;
78987;SDS011;74752;44.786;37.680;2024-03-08T01:38:53;22.77;;;14.60;;
78987;SDS011;74752;44.786;37.680;2024-03-08T01:39:56;23.75;;;13.73;;
78987;SDS011;74752;44.786;37.680;2024-03-08T01:40:58;24.75;;;14.77;;
78987;SDS011;74752;44.786;37.680;2024-03-08T01:42:00;26.25;;;15.45;;
78987;SDS011;74752;44.786;37.680;2024-03-08T01:43:16;22.52;;;14.30;;
78987;SDS011;74752;44.786;37.680;2024-03-08T01:44:22;21.58;;;13.57;;
78987;SDS011;74752;44.786;37.680;2024-03-08T01:45:23;22.33;;;14.15;;
78987;SDS011;74752;44.786;37.680;2024-03-08T01:46:25;21.45;;;13.88;;
78987;SDS011;74752;44.786;37.680;2024-03-08T01:47:29;22.40;;;13.48;;
78987;SDS011;74752;44.786;37.680;2024-03-08T01:48:33;22.13;;;13.50;;
78987;SDS011;74752;44.786;37.680;2024-03-08T01:49:34;23.33;;;14.93;;
78987;SDS011;74752;44.786;37.680;2024-03-08T01:50:37;27.33;;;15.45;;
78987;SDS011;74752;44.786;37.680;2024-03-08T01:51:40;22.63;;;14.70;;
78987;SDS011;74752;44.786;37.680;2024-03-08T01:52:43;21.20;;;13.35;;
78987;SDS011;74752;44.786;37.680;2024-03-08T01:53:46;20.08;;;12.85;;
78987;SDS011;74752;44.786;37.680;2024-03-08T01:54:49;23.58;;;14.85;;
78987;SDS011;74752;44.786;37.680;2024-03-08T01:55:52;23.38;;;14.55;;
78987;SDS011;74752;44.786;37.680;2024-03-08T01:56:57;23.48;;;15.35;;
78987;SDS011;74752;44.786;37.680;2024-03-08T01:57:59;25.15;;;15.45;;
78987;SDS011;74752;44.786;37.680;2024-03-08T01:59:02;24.92;;;14.73;;
78987;SDS011;74752;44.786;37.680;2024-03-08T02:00:03;22.27;;;14.38;;
78987;SDS011;74752;44.786;37.680;2024-03-08T02:01:06;26.77;;;15.68;;
78987;SDS011;74752;44.786;37.680;2024-03-08T02:02:10;23.95;;;14.80;;
78987;SDS011;74752;44.786;37.680;2024-03-08T02:03:18;20.40;;;12.70;;
78987;SDS011;74752;44.786;37.680;2024-03-08T02:04:20;22.95;;;14.70;;
78987;SDS011;74752;44.786;37.680;2024-03-08T02:05:22;24.35;;;14.10;;
78987;SDS011;74752;44.786;37.680;2024-03-08T02:06:27;22.58;;;13.55;;
78987;SDS011;74752;44.786;37.680;2024-03-08T02:07:29;20.88;;;12.85;;
78987;SDS011;74752;44.786;37.680;2024-03-08T02:08:31;22.67;;;14.15;;
78987;SDS011;74752;44.786;37.680;2024-03-08T02:09:32;25.27;;;15.32;;
78987;SDS011;74752;44.786;37.680;2024-03-08T02:10:34;24.70;;;14.80;;
78987;SDS011;74752;44.786;37.680;2024-03-08T02:11:36;24.15;;;14.70;;
78987;SDS011;74752;44.786;37.680;2024-03-08T02:12:39;24.35;;;14.40;;
78987;SDS011;74752;44.786;37.680;2024-03-08T02:13:41;25.67;;;14.73;;
78987;SDS011;74752;44.786;37.680;2024-03-08T02:14:42;24.13;;;14.93;;
78987;SDS011;74752;44.786;37.680;2024-03-08T02:15:54;28.63;;;15.27;;
78987;SDS011;74752;44.786;37.680;2024-03-08T02:17:01;23.63;;;14.15;;
78987;SDS011;74752;44.786;37.680;2024-03-08T02:19:08;21.98;;;13.40;;
78987;SDS011;74752;44.786;37.680;2024-03-08T02:20:12;23.90;;;13.77;;
78987;SDS011;74752;44.786;37.680;2024-03-08T02:21:14;22.55;;;14.77;;
78987;SDS011;74752;44.786;37.680;2024-03-08T02:22:21;25.15;;;14.63;;
78987;SDS011;74752;44.786;37.680;2024-03-08T02:23:23;23.85;;;14.63;;
78987;SDS011;74752;44.786;37.680;2024-03-08T02:24:28;25.90;;;15.10;;
78987;SDS011;74752;44.786;37.680;2024-03-08T02:25:30;25.20;;;14.70;;
78987;SDS011;74752;44.786;37.680;2024-03-08T02:26:31;24.38;;;14.75;;
78987;SDS011;74752;44.786;37.680;2024-03-08T02:27:33;22.88;;;14.50;;
78987;SDS011;74752;44.786;37.680;2024-03-08T02:28:37;24.25;;;14.40;;
78987;SDS011;74752;44.786;37.680;2024-03-08T02:29:40;27.23;;;15.25;;
78987;SDS011;74752;44.786;37.680;2024-03-08T02:30:49;23.88;;;13.75;;
78987;SDS011;74752;44.786;37.680;2024-03-08T02:31:57;27.98;;;15.00;;
78987;SDS011;74752;44.786;37.680;2024-03-08T02:32:59;24.13;;;14.73;;
78987;SDS011;74752;44.786;37.680;2024-03-08T02:34:01;23.27;;;14.30;;
78987;SDS011;74752;44.786;37.680;2024-03-08T02:35:03;24.98;;;14.20;;
78987;SDS011;74752;44.786;37.680;2024-03-08T02:36:07;25.90;;;15.30;;
78987;SDS011;74752;44.786;37.680;2024-03-08T02:37:09;28.13;;;15.15;;
78987;SDS011;74752;44.786;37.680;2024-03-08T02:38:17;23.05;;;14.25;;
78987;SDS011;74752;44.786;37.680;2024-03-08T02:39:20;23.17;;;14.45;;
78987;SDS011;74752;44.786;37.680;2024-03-08T02:40:22;23.20;;;13.45;;
78987;SDS011;74752;44.786;37.680;2024-03-08T02:41:27;25.17;;;14.73;;
78987;SDS011;74752;44.786;37.680;2024-03-08T02:42:29;21.00;;;13.63;;
78987;SDS011;74752;44.786;37.680;2024-03-08T02:43:31;22.00;;;13.63;;
78987;SDS011;74752;44.786;37.680;2024-03-08T02:44:32;22.30;;;13.07;;
78987;SDS011;74752;44.786;37.680;2024-03-08T02:45:42;21.92;;;12.70;;
78987;SDS011;74752;44.786;37.680;2024-03-08T02:46:46;24.10;;;13.77;;
78987;SDS011;74752;44.786;37.680;2024-03-08T02:47:49;21.17;;;12.02;;
78987;SDS011;74752;44.786;37.680;2024-03-08T02:48:52;21.25;;;12.35;;
78987;SDS011;74752;44.786;37.680;2024-03-08T02:49:53;22.20;;;12.85;;
78987;SDS011;74752;44.786;37.680;2024-03-08T02:50:59;23.50;;;14.32;;
78987;SDS011;74752;44.786;37.680;2024-03-08T02:52:02;20.08;;;12.80;;
78987;SDS011;74752;44.786;37.680;2024-03-08T02:53:04;21.00;;;12.77;;
78987;SDS011;74752;44.786;37.680;2024-03-08T02:54:07;21.73;;;12.82;;
78987;SDS011;74752;44.786;37.680;2024-03-08T02:55:11;20.73;;;12.52;;
78987;SDS011;74752;44.786;37.680;2024-03-08T02:56:19;24.15;;;11.98;;
78987;SDS011;74752;44.786;37.680;2024-03-08T02:57:23;24.55;;;13.95;;
78987;SDS011;74752;44.786;37.680;2024-03-08T02:58:28;21.58;;;12.93;;
78987;SDS011;74752;44.786;37.680;2024-03-08T02:59:30;21.45;;;13.27;;
78987;SDS011;74752;44.786;37.680;2024-03-08T03:00:32;21.88;;;12.75;;
78987;SDS011;74752;44.786;37.680;2024-03-08T03:01:33;20.65;;;12.48;;
78987;SDS011;74752;44.786;37.680;2024-03-08T03:02:36;21.55;;;13.77;;
78987;SDS011;74752;44.786;37.680;2024-03-08T03:03:38;25.58;;;15.15;;
78987;SDS011;74752;44.786;37.680;2024-03-08T03:04:40;24.90;;;14.13;;
78987;SDS011;74752;44.786;37.680;2024-03-08T03:05:42;22.58;;;13.43;;
78987;SDS011;74752;44.786;37.680;2024-03-08T03:06:43;24.60;;;14.00;;
78987;SDS011;74752;44.786;37.680;2024-03-08T03:07:48;22.98;;;14.05;;
78987;SDS011;74752;44.786;37.680;2024-03-08T03:08:50;23.75;;;14.45;;
78987;SDS011;74752;44.786;37.680;2024-03-08T03:09:54;25.13;;;14.10;;
78987;SDS011;74752;44.786;37.680;2024-03-08T03:10:56;24.20;;;13.60;;
78987;SDS011;74752;44.786;37.680;2024-03-08T03:11:58;26.92;;;15.00;;
78987;SDS011;74752;44.786;37.680;2024-03-08T03:13:00;24.50;;;12.95;;
78987;SDS011;74752;44.786;37.680;2024-03-08T03:14:02;24.65;;;13.93;;
78987;SDS011;74752;44.786;37.680;2024-03-08T03:15:04;25.27;;;14.98;;
78987;SDS011;74752;44.786;37.680;2024-03-08T03:16:08;24.90;;;14.30;;
78987;SDS011;74752;44.786;37.680;2024-03-08T03:17:11;28.05;;;15.43;;
78987;SDS011;74752;44.786;37.680;2024-03-08T03:18:12;28.02;;;16.35;;
78987;SDS011;74752;44.786;37.680;2024-03-08T03:19:14;31.40;;;15.75;;
78987;SDS011;74752;44.786;37.680;2024-03-08T03:20:17;31.08;;;16.00;;
78987;SDS011;74752;44.786;37.680;2024-03-08T03:21:28;27.52;;;16.23;;
78987;SDS011;74752;44.786;37.680;2024-03-08T03:22:32;27.35;;;15.48;;
78987;SDS011;74752;44.786;37.680;2024-03-08T03:23:36;29.83;;;15.80;;
78987;SDS011;74752;44.786;37.680;2024-03-08T03:24:38;28.63;;;16.23;;
78987;SDS011;74752;44.786;37.680;2024-03-08T03:25:40;33.60;;;16.20;;
78987;SDS011;74752;44.786;37.680;2024-03-08T03:26:42;29.92;;;15.90;;
78987;SDS011;74752;44.786;37.680;2024-03-08T03:27:44;29.77;;;16.33;;
78987;SDS011;74752;44.786;37.680;2024-03-08T03:28:48;29.38;;;15.27;;
78987;SDS011;74752;44.786;37.680;2024-03-08T03:29:51;28.70;;;15.05;;
78987;SDS011;74752;44.786;37.680;2024-03-08T03:30:52;30.80;;;16.52;;
78987;SDS011;74752;44.786;37.680;2024-03-08T03:31:54;27.58;;;15.25;;
78987;SDS011;74752;44.786;37.680;2024-03-08T03:32:56;28.75;;;14.95;;
78987;SDS011;74752;44.786;37.680;2024-03-08T03:34:02;28.60;;;15.45;;
78987;SDS011;74752;44.786;37.680;2024-03-08T03:35:04;32.45;;;17.00;;
78987;SDS011;74752;44.786;37.680;2024-03-08T03:36:07;25.48;;;14.70;;
78987;SDS011;74752;44.786;37.680;2024-03-08T03:37:11;27.80;;;14.95;;
78987;SDS011;74752;44.786;37.680;2024-03-08T03:38:16;20.58;;;12.85;;
78987;SDS011;74752;44.786;37.680;2024-03-08T03:39:19;26.33;;;14.32;;
78987;SDS011;74752;44.786;37.680;2024-03-08T03:40:23;24.77;;;13.70;;
78987;SDS011;74752;44.786;37.680;2024-03-08T03:41:26;24.63;;;12.77;;
78987;SDS011;74752;44.786;37.680;2024-03-08T03:42:30;24.38;;;13.65;;
78987;SDS011;74752;44.786;37.680;2024-03-08T03:43:32;23.50;;;13.93;;
78987;SDS011;74752;44.786;37.680;2024-03-08T03:44:33;24.48;;;14.43;;
78987;SDS011;74752;44.786;37.680;2024-03-08T03:45:37;24.90;;;14.35;;
78987;SDS011;74752;44.786;37.680;2024-03-08T03:46:42;26.20;;;14.57;;
78987;SDS011;74752;44.786;37.680;2024-03-08T03:47:52;27.50;;;15.73;;
78987;SDS011;74752;44.786;37.680;2024-03-08T03:48:54;29.08;;;15.82;;
78987;SDS011;74752;44.786;37.680;2024-03-08T03:49:57;27.67;;;15.60;;
78987;SDS011;74752;44.786;37.680;2024-03-08T03:51:03;24.27;;;14.00;;
78987;SDS011;74752;44.786;37.680;2024-03-08T03:52:09;32.35;;;15.30;;
78987;SDS011;74752;44.786;37.680;2024-03-08T03:53:11;26.70;;;14.63;;
78987;SDS011;74752;44.786;37.680;2024-03-08T03:54:14;29.50;;;16.10;;
78987;SDS011;74752;44.786;37.680;2024-03-08T03:55:17;26.52;;;14.85;;
78987;SDS011;74752;44.786;37.680;2024-03-08T03:56:24;28.00;;;15.43;;
78987;SDS011;74752;44.786;37.680;2024-03-08T03:57:28;25.85;;;15.07;;
78987;SDS011;74752;44.786;37.680;2024-03-08T03:58:31;26.90;;;14.80;;
78987;SDS011;74752;44.786;37.680;2024-03-08T03:59:32;27.90;;;15.10;;
78987;SDS011;74752;44.786;37.680;2024-03-08T04:00:34;29.65;;;15.32;;
78987;SDS011;74752;44.786;37.680;2024-03-08T04:01:36;27.40;;;15.05;;
78987;SDS011;74752;44.786;37.680;2024-03-08T04:02:42;29.73;;;15.25;;
78987;SDS011;74752;44.786;37.680;2024-03-08T04:03:44;29.63;;;14.98;;
78987;SDS011;74752;44.786;37.680;2024-03-08T04:04:48;27.55;;;15.43;;
78987;SDS011;74752;44.786;37.680;2024-03-08T04:05:50;25.30;;;13.90;;
78987;SDS011;74752;44.786;37.680;2024-03-08T04:06:52;30.10;;;14.23;;
78987;SDS011;74752;44.786;37.680;2024-03-08T04:07:54;29.17;;;15.88;;
78987;SDS011;74752;44.786;37.680;2024-03-08T04:08:56;25.33;;;13.73;;
78987;SDS011;74752;44.786;37.680;2024-03-08T04:09:58;26.38;;;15.18;;
78987;SDS011;74752;44.786;37.680;2024-03-08T04:11:01;30.70;;;15.45;;
78987;SDS011;74752;44.786;37.680;2024-03-08T04:12:03;25.88;;;14.77;;
78987;SDS011;74752;44.786;37.680;2024-03-08T04:13:06;28.40;;;15.15;;
78987;SDS011;74752;44.786;37.680;2024-03-08T04:14:10;26.30;;;14.52;;
78987;SDS011;74752;44.786;37.680;2024-03-08T04:15:12;31.70;;;15.05;;
78987;SDS011;74752;44.786;37.680;2024-03-08T04:16:17;24.23;;;13.88;;
78987;SDS011;74752;44.786;37.680;2024-03-08T04:17:20;30.73;;;14.98;;
78987;SDS011;74752;44.786;37.680;2024-03-08T04:18:22;29.35;;;15.35;;
78987;SDS011;74752;44.786;37.680;2024-03-08T04:19:23;25.00;;;13.30;;
78987;SDS011;74752;44.786;37.680;2024-03-08T04:20:46;26.80;;;14.05;;
78987;SDS011;74752;44.786;37.680;2024-03-08T04:21:49;19.63;;;11.55;;
78987;SDS011;74752;44.786;37.680;2024-03-08T04:22:51;26.13;;;14.35;;
78987;SDS011;74752;44.786;37.680;2024-03-08T04:23:52;25.10;;;14.00;;
78987;SDS011;74752;44.786;37.680;2024-03-08T04:24:53;26.20;;;13.75;;
78987;SDS011;74752;44.786;37.680;2024-03-08T04:25:58;30.95;;;14.23;;
78987;SDS011;74752;44.786;37.680;2024-03-08T04:27:00;28.00;;;14.55;;
78987;SDS011;74752;44.786;37.680;2024-03-08T04:28:02;28.00;;;15.23;;
78987;SDS011;74752;44.786;37.680;2024-03-08T04:29:03;24.00;;;13.68;;
78987;SDS011;74752;44.786;37.680;2024-03-08T04:30:08;27.92;;;15.15;;
78987;SDS011;74752;44.786;37.680;2024-03-08T04:31:10;28.13;;;13.93;;
78987;SDS011;74752;44.786;37.680;2024-03-08T04:32:12;27.27;;;14.02;;
78987;SDS011;74752;44.786;37.680;2024-03-08T04:33:14;28.80;;;14.57;;
78987;SDS011;74752;44.786;37.680;2024-03-08T04:34:17;25.92;;;13.77;;
78987;SDS011;74752;44.786;37.680;2024-03-08T04:35:22;27.00;;;13.20;;
78987;SDS011;74752;44.786;37.680;2024-03-08T04:36:23;26.45;;;14.60;;
78987;SDS011;74752;44.786;37.680;2024-03-08T04:37:26;25.55;;;14.20;;
78987;SDS011;74752;44.786;37.680;2024-03-08T04:38:31;25.95;;;13.27;;
78987;SDS011;74752;44.786;37.680;2024-03-08T04:39:32;27.08;;;14.63;;
78987;SDS011;74752;44.786;37.680;2024-03-08T04:40:36;26.55;;;13.68;;
78987;SDS011;74752;44.786;37.680;2024-03-08T04:41:39;28.45;;;14.95;;
78987;SDS011;74752;44.786;37.680;2024-03-08T04:42:41;27.77;;;14.63;;
78987;SDS011;74752;44.786;37.680;2024-03-08T04:43:43;28.35;;;14.15;;
78987;SDS011;74752;44.786;37.680;2024-03-08T04:44:46;27.67;;;14.60;;
78987;SDS011;74752;44.786;37.680;2024-03-08T04:45:49;28.95;;;14.13;;
78987;SDS011;74752;44.786;37.680;2024-03-08T04:46:51;26.70;;;14.82;;
78987;SDS011;74752;44.786;37.680;2024-03-08T04:47:52;26.73;;;14.23;;
78987;SDS011;74752;44.786;37.680;2024-03-08T04:48:54;29.42;;;14.50;;
78987;SDS011;74752;44.786;37.680;2024-03-08T04:49:56;30.60;;;14.63;;
78987;SDS011;74752;44.786;37.680;2024-03-08T04:50:59;26.60;;;13.85;;
78987;SDS011;74752;44.786;37.680;2024-03-08T04:52:02;28.98;;;15.00;;
78987;SDS011;74752;44.786;37.680;2024-03-08T04:53:04;29.67;;;13.70;;
78987;SDS011;74752;44.786;37.680;2024-03-08T04:54:12;23.75;;;13.10;;
78987;SDS011;74752;44.786;37.680;2024-03-08T04:55:13;23.70;;;12.73;;
78987;SDS011;74752;44.786;37.680;2024-03-08T04:56:18;25.92;;;13.52;;
78987;SDS011;74752;44.786;37.680;2024-03-08T04:57:23;24.95;;;13.73;;
78987;SDS011;74752;44.786;37.680;2024-03-08T04:58:29;25.58;;;13.50;;
78987;SDS011;74752;44.786;37.680;2024-03-08T04:59:30;24.02;;;13.43;;
78987;SDS011;74752;44.786;37.680;2024-03-08T05:00:32;24.88;;;13.35;;
78987;SDS011;74752;44.786;37.680;2024-03-08T05:01:37;24.27;;;12.82;;
78987;SDS011;74752;44.786;37.680;2024-03-08T05:02:39;28.00;;;13.63;;
78987;SDS011;74752;44.786;37.680;2024-03-08T05:03:44;27.70;;;13.15;;
78987;SDS011;74752;44.786;37.680;2024-03-08T05:04:54;22.83;;;12.77;;
78987;SDS011;74752;44.786;37.680;2024-03-08T05:05:56;28.52;;;13.73;;
78987;SDS011;74752;44.786;37.680;2024-03-08T05:06:58;25.90;;;13.73;;
78987;SDS011;74752;44.786;37.680;2024-03-08T05:08:01;23.90;;;13.13;;
78987;SDS011;74752;44.786;37.680;2024-03-08T05:09:04;22.70;;;12.30;;
78987;SDS011;74752;44.786;37.680;2024-03-08T05:10:14;27.75;;;13.57;;
78987;SDS011;74752;44.786;37.680;2024-03-08T05:11:18;26.23;;;13.38;;
78987;SDS011;74752;44.786;37.680;2024-03-08T05:12:20;23.65;;;13.32;;
78987;SDS011;74752;44.786;37.680;2024-03-08T05:13:30;26.48;;;13.90;;
78987;SDS011;74752;44.786;37.680;2024-03-08T05:14:31;25.67;;;13.68;;
78987;SDS011;74752;44.786;37.680;2024-03-08T05:15:33;25.92;;;14.25;;
78987;SDS011;74752;44.786;37.680;2024-03-08T05:16:36;30.90;;;15.35;;
78987;SDS011;74752;44.786;37.680;2024-03-08T05:17:38;26.23;;;13.68;;
78987;SDS011;74752;44.786;37.680;2024-03-08T05:18:41;25.65;;;12.70;;
78987;SDS011;74752;44.786;37.680;2024-03-08T05:19:43;25.00;;;11.73;;
78987;SDS011;74752;44.786;37.680;2024-03-08T05:20:47;26.05;;;13.80;;
78987;SDS011;74752;44.786;37.680;2024-03-08T05:21:49;24.50;;;13.68;;
78987;SDS011;74752;44.786;37.680;2024-03-08T05:22:52;22.73;;;12.05;;
78987;SDS011;74752;44.786;37.680;2024-03-08T05:23:53;26.85;;;14.13;;
78987;SDS011;74752;44.786;37.680;2024-03-08T05:24:57;24.30;;;14.27;;
78987;SDS011;74752;44.786;37.680;2024-03-08T05:25:59;34.22;;;18.17;;
78987;SDS011;74752;44.786;37.680;2024-03-08T05:27:01;48.10;;;34.05;;
78987;SDS011;74752;44.786;37.680;2024-03-08T05:28:04;44.17;;;29.27;;
78987;SDS011;74752;44.786;37.680;2024-03-08T05:29:07;30.02;;;17.50;;
78987;SDS011;74752;44.786;37.680;2024-03-08T05:30:12;25.13;;;13.88;;
78987;SDS011;74752;44.786;37.680;2024-03-08T05:31:19;41.60;;;26.10;;
78987;SDS011;74752;44.786;37.680;2024-03-08T05:32:23;27.75;;;16.48;;
78987;SDS011;74752;44.786;37.680;2024-03-08T05:33:26;25.33;;;15.02;;
78987;SDS011;74752;44.786;37.680;2024-03-08T05:34:28;25.67;;;14.57;;
78987;SDS011;74752;44.786;37.680;2024-03-08T05:35:33;25.48;;;13.60;;
78987;SDS011;74752;44.786;37.680;2024-03-08T05:36:34;23.73;;;13.80;;
78987;SDS011;74752;44.786;37.680;2024-03-08T05:37:36;21.70;;;13.00;;
78987;SDS011;74752;44.786;37.680;2024-03-08T05:38:38;26.00;;;14.27;;
78987;SDS011;74752;44.786;37.680;2024-03-08T05:39:44;24.05;;;12.40;;
78987;SDS011;74752;44.786;37.680;2024-03-08T05:40:46;23.98;;;12.82;;
78987;SDS011;74752;44.786;37.680;2024-03-08T05:41:49;20.52;;;11.98;;
78987;SDS011;74752;44.786;37.680;2024-03-08T05:42:52;23.63;;;12.82;;
78987;SDS011;74752;44.786;37.680;2024-03-08T05:43:53;24.08;;;12.55;;
78987;SDS011;74752;44.786;37.680;2024-03-08T05:44:54;24.60;;;12.95;;
78987;SDS011;74752;44.786;37.680;2024-03-08T05:45:58;24.02;;;12.95;;
78987;SDS011;74752;44.786;37.680;2024-03-08T05:47:00;22.85;;;12.85;;
78987;SDS011;74752;44.786;37.680;2024-03-08T05:48:04;29.38;;;13.27;;
78987;SDS011;74752;44.786;37.680;2024-03-08T05:49:13;26.15;;;12.75;;
78987;SDS011;74752;44.786;37.680;2024-03-08T05:50:14;28.63;;;13.80;;
78987;SDS011;74752;44.786;37.680;2024-03-08T05:51:17;24.63;;;12.05;;
78987;SDS011;74752;44.786;37.680;2024-03-08T05:52:28;25.20;;;12.88;;
78987;SDS011;74752;44.786;37.680;2024-03-08T05:53:30;24.63;;;14.00;;
78987;SDS011;74752;44.786;37.680;2024-03-08T05:54:33;28.13;;;14.48;;
78987;SDS011;74752;44.786;37.680;2024-03-08T05:55:36;27.63;;;13.88;;
78987;SDS011;74752;44.786;37.680;2024-03-08T05:56:39;24.42;;;12.73;;
78987;SDS011;74752;44.786;37.680;2024-03-08T05:57:44;25.33;;;13.63;;
78987;SDS011;74752;44.786;37.680;2024-03-08T05:59:08;23.08;;;12.35;;
78987;SDS011;74752;44.786;37.680;2024-03-08T06:00:10;24.17;;;13.18;;
78987;SDS011;74752;44.786;37.680;2024-03-08T06:01:14;25.00;;;12.85;;
78987;SDS011;74752;44.786;37.680;2024-03-08T06:02:19;22.58;;;13.48;;
78987;SDS011;74752;44.786;37.680;2024-03-08T06:03:21;24.27;;;13.52;;
78987;SDS011;74752;44.786;37.680;2024-03-08T06:04:22;22.23;;;12.82;;
78987;SDS011;74752;44.786;37.680;2024-03-08T06:05:24;22.58;;;12.52;;